Time;durP1;ratioP1;P1;durP2;ratioP2;P2;SDS_P1;SDS_P2;PMS_P1;PMS_P2;Temp;Humidity;BMP_temperature;BMP_pressure;BME280_temperature;BME280_humidity;BME280_pressure;Samples;Min_cycle;Max_cycle;Signal;HPM_P1;HPM_P2
2021/05/15 03:32:42;;;;;;;3.13;2.00;;;;;;;14.45;52.96;98120.72;7348714;22;20225;-84
2021/05/15 03:36:05;;;;;;;1.63;1.50;;;;;;;14.43;52.11;98100.34;6911087;28;20212;-84
2021/05/15 03:39:26;;;;;;;2.30;1.80;;;;;;;13.93;53.71;98115.69;6926758;28;20324;-84
2021/05/15 03:42:48;;;;;;;2.70;2.23;;;;;;;14.11;53.12;98110.06;6903932;28;20234;-85
2021/05/15 03:46:09;;;;;;;2.40;2.20;;;;;;;13.97;53.51;98123.09;6898240;28;20218;-85
2021/05/15 03:49:33;;;;;;;2.43;2.20;;;;;;;13.72;53.85;98128.03;6896492;28;20211;-85
2021/05/15 03:52:54;;;;;;;3.00;2.13;;;;;;;13.09;55.89;98104.78;6897764;28;20226;-85
2021/05/15 03:56:15;;;;;;;2.70;2.20;;;;;;;13.17;55.77;98101.69;6897368;28;20299;-85
2021/05/15 03:59:36;;;;;;;2.80;2.57;;;;;;;13.04;55.96;98108.19;6895756;28;20283;-85
2021/05/15 04:02:57;;;;;;;2.20;2.10;;;;;;;12.12;59.54;98116.22;6896027;28;20240;-85
2021/05/15 04:06:19;;;;;;;2.03;1.83;;;;;;;12.40;59.32;98107.47;6896877;28;20213;-85
2021/05/15 04:09:40;;;;;;;6.07;2.07;;;;;;;12.78;58.28;98107.81;6896559;28;20260;-84
2021/05/15 04:13:07;;;;;;;2.57;2.10;;;;;;;12.86;57.98;98111.00;6896648;28;20225;-85
2021/05/15 04:16:45;;;;;;;2.73;1.90;;;;;;;12.85;57.75;98120.19;6896326;28;20665;-86
2021/05/15 04:20:07;;;;;;;2.03;1.87;;;;;;;13.15;56.82;98122.78;6895676;28;20222;-85
2021/05/15 04:23:29;;;;;;;2.17;1.97;;;;;;;13.49;55.67;98116.44;6896415;28;20222;-85
2021/05/15 04:26:51;;;;;;;2.13;2.03;;;;;;;13.50;55.41;98120.78;6896570;28;20598;-85
2021/05/15 04:30:14;;;;;;;2.47;1.90;;;;;;;13.66;55.14;98111.91;6894893;28;20256;-85
2021/05/15 04:33:36;;;;;;;2.00;1.90;;;;;;;13.70;54.95;98113.88;6895397;28;20218;-86
2021/05/15 04:36:58;;;;;;;5.37;2.17;;;;;;;13.73;55.28;98104.47;6895475;28;20211;-85
2021/05/15 04:40:20;;;;;;;3.60;2.00;;;;;;;14.08;53.65;98097.81;6894859;28;20591;-85
2021/05/15 04:43:41;;;;;;;2.20;1.93;;;;;;;13.73;54.74;98118.84;6894726;28;20204;-83
2021/05/15 04:47:02;;;;;;;2.13;1.97;;;;;;;13.87;54.76;98120.19;6895934;28;20207;-85
2021/05/15 04:50:23;;;;;;;2.30;1.63;;;;;;;13.76;54.67;98126.47;6894849;28;20263;-82
2021/05/15 04:53:44;;;;;;;2.10;1.90;;;;;;;14.07;53.82;98111.59;6883251;28;20210;-83
2021/05/15 04:57:07;;;;;;;1.70;1.60;;;;;;;14.22;53.47;98112.72;6869923;28;20221;-83
2021/05/15 05:00:28;;;;;;;1.70;1.60;;;;;;;14.61;52.53;98125.34;6891409;28;20230;-84
2021/05/15 05:03:49;;;;;;;1.90;1.80;;;;;;;14.64;52.53;98121.31;6896442;28;20233;-84
2021/05/15 05:07:10;;;;;;;2.23;1.90;;;;;;;14.86;52.05;98131.16;6896318;28;20215;-84
2021/05/15 05:10:31;;;;;;;1.80;1.70;;;;;;;15.07;51.26;98115.97;6907212;28;20242;-83
2021/05/15 05:13:53;;;;;;;3.13;1.90;;;;;;;14.93;52.16;98131.78;6899290;28;20214;-83
2021/05/15 05:17:14;;;;;;;3.10;1.80;;;;;;;15.76;50.63;98120.72;6899913;28;20204;-85
2021/05/15 05:20:35;;;;;;;1.90;1.80;;;;;;;16.30;48.48;98112.31;6899078;28;20235;-84
2021/05/15 05:23:56;;;;;;;3.07;1.70;;;;;;;15.80;48.90;98108.28;6897750;28;20216;-84
2021/05/15 05:27:20;;;;;;;1.60;1.40;;;;;;;16.13;48.83;98116.22;6898274;28;20204;-86
2021/05/15 05:30:42;;;;;;;2.50;1.90;;;;;;;16.16;49.08;98119.25;6889458;28;20228;-83
2021/05/15 05:34:04;;;;;;;7.77;4.53;;;;;;;16.56;47.28;98116.09;6897508;28;20208;-84
2021/05/15 05:37:25;;;;;;;8.27;5.73;;;;;;;16.85;47.68;98117.41;6897051;28;20262;-83
2021/05/15 05:40:46;;;;;;;5.03;2.83;;;;;;;17.64;44.85;98105.38;6895917;28;20236;-83
2021/05/15 05:44:07;;;;;;;1.97;1.87;;;;;;;18.01;43.62;98104.13;6896607;28;20213;-83
2021/05/15 05:47:29;;;;;;;3.10;2.80;;;;;;;18.31;42.82;98103.34;6896221;28;20255;-83
2021/05/15 05:50:52;;;;;;;1.70;1.60;;;;;;;18.67;42.22;98105.88;6894437;28;20229;-83
2021/05/15 05:54:14;;;;;;;1.53;1.40;;;;;;;17.95;42.91;98105.22;6895957;28;20203;-83
2021/05/15 05:57:35;;;;;;;1.23;1.13;;;;;;;18.57;41.91;98105.06;6897408;28;20204;-83
2021/05/15 06:00:56;;;;;;;1.73;1.60;;;;;;;18.10;42.15;98088.84;6894334;28;20251;-83
2021/05/15 06:04:20;;;;;;;1.83;1.60;;;;;;;18.52;40.92;98088.66;6894011;28;20207;-83
2021/05/15 06:07:41;;;;;;;1.70;1.60;;;;;;;18.15;42.08;98090.75;6895774;28;20203;-82
2021/05/15 06:11:02;;;;;;;1.77;1.63;;;;;;;18.76;41.86;98090.56;6894993;28;20235;-83
2021/05/15 06:14:23;;;;;;;1.70;1.60;;;;;;;19.10;40.94;98083.41;6896004;28;20205;-82
2021/05/15 06:17:44;;;;;;;3.97;3.57;;;;;;;18.87;40.29;98091.38;6896554;28;20239;-83
2021/05/15 06:21:06;;;;;;;3.93;3.23;;;;;;;19.20;39.63;98088.84;6872321;28;20247;-83
2021/05/15 06:24:27;;;;;;;6.50;4.30;;;;;;;19.74;38.95;98073.38;6869495;28;20205;-83
2021/05/15 06:27:49;;;;;;;2.77;2.10;;;;;;;19.29;39.64;98094.59;6868206;28;20458;-83
2021/05/15 06:31:10;;;;;;;2.57;2.20;;;;;;;19.04;40.02;98086.44;6870915;28;20263;-83
2021/05/15 06:34:33;;;;;;;4.77;3.30;;;;;;;19.42;39.59;98077.59;6892360;28;20215;-83
2021/05/15 06:37:55;;;;;;;3.03;2.40;;;;;;;19.64;38.25;98070.66;6895600;28;20714;-82
2021/05/15 06:41:16;;;;;;;1.80;1.70;;;;;;;20.23;37.77;98071.44;6895120;28;20267;-83
2021/05/15 06:44:37;;;;;;;2.23;1.77;;;;;;;20.17;37.58;98069.03;6894480;28;20199;-82
2021/05/15 06:47:58;;;;;;;1.17;1.17;;;;;;;19.70;37.41;98053.13;6894590;28;20255;-83
2021/05/15 06:51:20;;;;;;;1.40;1.20;;;;;;;19.08;39.11;98062.91;6900384;28;20225;-83
2021/05/15 06:54:42;;;;;;;2.20;1.20;;;;;;;19.53;38.84;98060.06;6901693;28;20206;-84
2021/05/15 06:58:04;;;;;;;1.37;1.20;;;;;;;19.64;37.82;98061.66;6894375;28;20207;-83
2021/05/15 07:01:26;;;;;;;1.53;1.43;;;;;;;19.57;38.40;98066.63;6868540;28;20644;-84
2021/05/15 07:04:50;;;;;;;1.37;0.80;;;;;;;19.16;39.08;98060.44;6869817;28;20221;-84
2021/05/15 07:08:11;;;;;;;1.30;1.20;;;;;;;18.86;38.79;98040.59;6889074;28;20213;-84
2021/05/15 07:11:33;;;;;;;1.03;1.03;;;;;;;19.56;38.49;98041.19;6897161;28;20217;-83
2021/05/15 07:14:57;;;;;;;1.53;1.30;;;;;;;19.51;39.10;98024.78;6891198;28;20216;-82
2021/05/15 07:18:18;;;;;;;1.17;1.13;;;;;;;19.97;37.60;98045.31;6904030;28;20552;-84
2021/05/15 07:21:39;;;;;;;2.30;1.17;;;;;;;21.04;36.60;98023.09;6926490;28;20257;-84
2021/05/15 07:25:01;;;;;;;2.53;2.33;;;;;;;20.15;37.27;98038.38;6931116;28;20225;-84
2021/05/15 07:28:23;;;;;;;1.73;1.13;;;;;;;19.37;38.92;98036.63;6930812;28;20210;-83
2021/05/15 07:31:44;;;;;;;1.53;1.10;;;;;;;19.92;38.67;98041.81;6908644;28;20568;-84
2021/05/15 07:35:06;;;;;;;1.00;1.00;;;;;;;19.78;38.08;98046.25;6902526;28;20302;-84
2021/05/15 07:38:27;;;;;;;1.10;1.10;;;;;;;20.37;37.70;98031.38;6889457;28;20230;-83
2021/05/15 07:41:50;;;;;;;3.03;1.53;;;;;;;19.49;38.80;98023.44;6879217;28;20232;-84
2021/05/15 07:45:13;;;;;;;1.47;1.33;;;;;;;20.16;38.20;98029.91;6898296;28;20205;-85
2021/05/15 07:48:38;;;;;;;2.23;1.30;;;;;;;19.74;38.96;98039.75;6899466;28;20209;-84
2021/05/15 07:52:01;;;;;;;1.90;1.23;;;;;;;20.35;37.61;98028.09;6894689;28;20233;-83
2021/05/15 07:55:23;;;;;;;2.37;1.40;;;;;;;19.46;39.06;98033.00;6899419;28;20207;-83
2021/05/15 07:58:44;;;;;;;0.97;0.97;;;;;;;19.52;38.92;98037.34;6900295;28;20222;-84
2021/05/15 08:02:06;;;;;;;2.23;1.27;;;;;;;19.82;37.34;98017.25;6890604;28;20272;-84
2021/05/15 08:05:27;;;;;;;3.30;1.27;;;;;;;19.75;37.67;98031.22;6887167;28;20211;-84
2021/05/15 08:08:49;;;;;;;2.07;1.20;;;;;;;19.63;37.53;98019.81;6875382;28;20254;-84
2021/05/15 08:12:10;;;;;;;1.63;1.10;;;;;;;19.40;37.75;98025.13;6873675;28;20221;-84
2021/05/15 08:15:33;;;;;;;3.37;1.80;;;;;;;20.37;36.82;98014.97;6872132;28;20238;-83
2021/05/15 08:19:01;;;;;;;1.00;1.00;;;;;;;20.64;35.85;98026.19;6871925;28;20233;-84
2021/05/15 08:22:22;;;;;;;5.40;1.43;;;;;;;20.61;36.21;98020.47;6870582;28;20228;-84
2021/05/15 08:25:43;;;;;;;1.30;1.20;;;;;;;20.57;36.14;98009.28;6882563;28;20231;-84
2021/05/15 08:29:07;;;;;;;13.47;1.93;;;;;;;20.82;35.31;98017.25;6898009;28;20211;-84
2021/05/15 08:32:28;;;;;;;1.50;1.20;;;;;;;21.16;35.34;97989.81;6898347;28;20233;-84
2021/05/15 08:35:50;;;;;;;1.37;0.90;;;;;;;20.77;34.94;98023.63;6898634;28;20276;-84
2021/05/15 08:39:11;;;;;;;1.33;1.20;;;;;;;19.07;38.15;98018.41;6897470;28;20235;-83
2021/05/15 08:42:35;;;;;;;2.37;1.30;;;;;;;20.40;36.50;98021.78;6898202;28;20823;-85
2021/05/15 08:45:57;;;;;;;1.40;1.30;;;;;;;20.70;35.85;98014.09;6896709;28;20224;-84
2021/05/15 08:49:37;;;;;;;1.47;1.37;;;;;;;20.73;35.87;98008.03;6895250;28;20213;-84
2021/05/15 08:53:14;;;;;;;1.80;1.23;;;;;;;21.11;35.47;98012.59;6896168;28;20219;-82
2021/05/15 08:56:44;;;;;;;1.37;1.20;;;;;;;21.19;35.95;98009.22;6896258;28;20211;-83
2021/05/15 09:00:11;;;;;;;1.73;0.83;;;;;;;21.47;34.52;97995.41;6900841;28;20230;-85
2021/05/15 09:03:34;;;;;;;1.63;1.10;;;;;;;22.69;33.62;97980.38;6895825;28;20239;-82
2021/05/15 09:06:57;;;;;;;1.80;1.33;;;;;;;22.59;32.66;97994.28;6897125;28;20207;-81
2021/05/15 09:10:33;;;;;;;1.60;1.50;;;;;;;22.22;33.25;97993.53;6895462;28;20207;-84
2021/05/15 09:13:58;;;;;;;1.60;1.10;;;;;;;21.83;33.27;97960.91;6898032;28;20688;-83
2021/05/15 09:17:27;;;;;;;2.00;1.20;;;;;;;20.90;36.00;97983.78;6897095;28;20542;-82
2021/05/15 09:21:02;;;;;;;1.87;1.77;;;;;;;21.87;33.49;97975.69;6897358;28;20285;-83
2021/05/15 09:24:41;;;;;;;3.67;2.20;;;;;;;21.85;33.60;97966.94;6898107;28;20596;-82
2021/05/15 09:28:05;;;;;;;2.33;1.20;;;;;;;21.26;33.67;97976.78;6884091;28;20201;-83
2021/05/15 09:31:31;;;;;;;1.57;1.40;;;;;;;22.04;33.79;97966.91;6877335;28;20726;-82
2021/05/15 09:34:55;;;;;;;2.57;1.40;;;;;;;22.51;32.42;97962.03;6896181;28;20212;-82
2021/05/15 09:38:22;;;;;;;1.53;1.20;;;;;;;22.11;33.49;97968.16;6896389;28;20218;-82
2021/05/15 09:41:48;;;;;;;1.23;1.13;;;;;;;21.59;33.74;97967.56;6895509;28;20236;-82
2021/05/15 09:45:19;;;;;;;1.33;1.20;;;;;;;21.70;33.67;97964.41;6894899;28;20212;-82
2021/05/15 09:49:05;;;;;;;1.30;1.20;;;;;;;21.47;34.42;97954.28;6895584;28;20204;-82
2021/05/15 09:52:33;;;;;;;1.47;1.37;;;;;;;21.82;33.62;97926.34;6894770;28;20574;-82
2021/05/15 09:56:00;;;;;;;0.97;0.97;;;;;;;21.55;33.36;97948.13;6896100;28;20200;-82
2021/05/15 09:59:32;;;;;;;1.30;1.20;;;;;;;21.48;33.68;97947.69;6894357;28;20256;-82
2021/05/15 10:02:56;;;;;;;1.33;1.23;;;;;;;21.87;33.00;97925.44;6894417;28;20226;-82
2021/05/15 10:06:20;;;;;;;1.27;1.17;;;;;;;21.42;33.21;97940.63;6893961;28;20215;-82
2021/05/15 10:10:03;;;;;;;2.50;1.37;;;;;;;21.41;34.61;97933.50;6894119;28;20632;-82
2021/05/15 10:13:34;;;;;;;1.93;1.17;;;;;;;21.31;34.54;97924.63;6894796;28;20664;-82
2021/05/15 10:17:10;;;;;;;1.13;1.07;;;;;;;22.22;33.19;97917.47;6893599;28;20576;-85
2021/05/15 10:20:39;;;;;;;1.30;1.20;;;;;;;23.41;31.29;97905.22;6893846;28;20666;-82
2021/05/15 10:24:04;;;;;;;2.63;1.30;;;;;;;22.93;31.83;97898.53;6895267;28;20205;-82
2021/05/15 10:31:19;;;;;;;1.40;1.30;;;;;;;22.62;32.09;97885.72;6892324;28;20721;-83
2021/05/15 10:34:44;;;;;;;4.43;1.13;;;;;;;22.72;31.78;97883.56;6894361;28;20264;-82
2021/05/15 10:38:20;;;;;;;2.33;1.30;;;;;;;22.32;33.27;97883.50;6894443;28;20664;-84
2021/05/15 10:41:47;;;;;;;1.90;1.30;;;;;;;22.51;32.56;97884.28;6897240;28;20255;-82
2021/05/15 10:45:16;;;;;;;0.97;0.87;;;;;;;22.30;32.62;97878.31;6901269;28;20207;-82
2021/05/15 10:48:53;;;;;;;2.10;1.40;;;;;;;21.52;33.84;97874.66;6886282;28;20208;-83
2021/05/15 10:52:16;;;;;;;1.90;1.20;;;;;;;21.35;35.49;97865.31;6889507;28;20225;-82
2021/05/15 10:55:38;;;;;;;1.77;1.53;;;;;;;22.00;35.17;97842.34;6895281;28;20237;-82
2021/05/15 10:59:09;;;;;;;3.33;1.43;;;;;;;21.50;34.89;97841.25;6898969;28;20223;-83
2021/05/15 11:02:37;;;;;;;2.30;1.70;;;;;;;21.74;35.24;97846.63;6907135;28;20220;-83
2021/05/15 11:06:12;;;;;;;1.70;1.60;;;;;;;22.52;33.05;97842.75;6900109;28;20214;-81
2021/05/15 11:09:49;;;;;;;1.63;1.30;;;;;;;21.90;33.67;97839.78;6898739;28;20211;-83
2021/05/15 11:13:13;;;;;;;1.20;1.10;;;;;;;22.52;31.63;97822.72;6900445;28;20245;-82
2021/05/15 11:16:35;;;;;;;1.97;1.20;;;;;;;23.69;30.55;97818.72;6905869;28;20213;-81
2021/05/15 11:20:00;;;;;;;2.50;1.33;;;;;;;23.04;29.82;97813.91;6899099;28;20714;-82
2021/05/15 11:23:24;;;;;;;1.57;1.17;;;;;;;24.05;27.80;97793.84;6901684;28;20235;-83
2021/05/15 11:26:53;;;;;;;4.93;1.43;;;;;;;24.13;27.93;97782.09;6907102;28;20210;-82
2021/05/15 11:30:21;;;;;;;1.60;1.27;;;;;;;22.86;30.08;97796.44;6904319;28;20213;-82
2021/05/15 11:33:50;;;;;;;2.17;1.30;;;;;;;22.87;30.22;97799.97;6898279;28;20206;-82
2021/05/15 11:37:20;;;;;;;2.73;1.57;;;;;;;22.93;30.63;97805.06;6878463;28;20199;-81
2021/05/15 11:40:55;;;;;;;3.77;1.23;;;;;;;22.19;32.27;97810.16;6897837;28;20235;-82
2021/05/15 11:44:25;;;;;;;2.03;1.20;;;;;;;21.11;32.13;97823.44;6898142;28;20202;-82
2021/05/15 11:47:51;;;;;;;8.27;1.73;;;;;;;20.49;35.74;97844.78;6898923;28;20688;-81
2021/05/15 11:51:26;;;;;;;1.77;1.63;;;;;;;20.11;34.24;97824.66;6923413;28;20225;-82
2021/05/15 11:54:57;;;;;;;1.73;1.30;;;;;;;19.94;35.05;97826.19;6913695;28;20220;-82
2021/05/15 11:58:25;;;;;;;1.53;1.00;;;;;;;20.05;35.64;97794.88;6898030;28;20209;-81
2021/05/15 12:01:51;;;;;;;1.23;1.13;;;;;;;20.72;36.42;97800.97;6896856;28;20236;-82
2021/05/15 12:05:30;;;;;;;0.80;0.77;;;;;;;21.23;33.14;97794.47;6898003;28;20233;-82
2021/05/15 12:08:55;;;;;;;1.13;0.97;;;;;;;21.70;31.83;97790.72;6897846;28;20212;-82
2021/05/15 12:12:26;;;;;;;1.90;1.00;;;;;;;22.29;32.43;97790.72;6893784;28;20249;-81
2021/05/15 12:15:52;;;;;;;1.77;1.03;;;;;;;22.49;31.73;97766.44;6903169;28;20222;-81
2021/05/15 12:19:34;;;;;;;1.47;1.10;;;;;;;22.68;31.81;97769.06;6897240;28;20315;-81
2021/05/15 12:23:15;;;;;;;1.83;0.87;;;;;;;22.54;32.38;97760.03;6901927;28;20227;-82
2021/05/15 12:27:01;;;;;;;1.07;0.90;;;;;;;21.19;33.34;97773.44;6899865;28;20249;-81
2021/05/15 12:30:28;;;;;;;2.67;1.10;;;;;;;21.54;34.59;97772.88;6894499;28;20194;-82
2021/05/15 12:33:55;;;;;;;3.13;1.20;;;;;;;21.93;33.07;97749.41;6896450;28;20200;-83
2021/05/15 12:37:18;;;;;;;2.70;1.30;;;;;;;22.48;34.06;97745.59;6895388;28;20676;-82
2021/05/15 12:40:45;;;;;;;1.10;1.00;;;;;;;22.98;32.74;97743.66;6894177;28;20240;-81
2021/05/15 12:44:11;;;;;;;2.30;1.10;;;;;;;22.85;32.21;97739.84;6896754;28;20207;-83
2021/05/15 12:47:51;;;;;;;2.13;1.20;;;;;;;23.67;31.59;97735.63;6897230;28;20260;-86
2021/05/15 12:51:26;;;;;;;1.10;1.00;;;;;;;23.38;31.06;97717.97;6899283;28;20308;-83
2021/05/15 12:55:03;;;;;;;3.43;1.30;;;;;;;23.31;32.67;97721.16;6898654;28;20209;-83
2021/05/15 12:58:40;;;;;;;0.77;0.77;;;;;;;22.93;30.86;97717.09;6896837;28;20204;-85
2021/05/15 13:02:19;;;;;;;3.23;1.10;;;;;;;22.50;31.62;97726.06;6893595;28;20225;-84
2021/05/15 13:05:47;;;;;;;1.97;1.17;;;;;;;23.32;29.71;97708.22;6894655;28;20194;-82
2021/05/15 13:09:14;;;;;;;1.77;1.53;;;;;;;23.87;28.19;97704.84;6894825;28;20259;-82
2021/05/15 13:12:37;;;;;;;1.10;1.10;;;;;;;23.58;29.84;97693.50;6895709;28;20220;-82
2021/05/15 13:16:09;;;;;;;2.57;1.10;;;;;;;23.21;30.30;97680.16;6918880;28;20214;-81
2021/05/15 13:19:34;;;;;;;1.13;0.93;;;;;;;22.17;30.72;97692.38;6875659;28;20224;-81
2021/05/15 13:23:15;;;;;;;1.37;1.10;;;;;;;23.02;32.00;97701.47;6886239;28;20235;-81
2021/05/15 13:26:43;;;;;;;2.37;1.00;;;;;;;22.65;32.12;97698.25;6810501;29;20213;-82
2021/05/15 13:30:14;;;;;;;1.77;1.33;;;;;;;22.55;33.31;97699.28;6810184;29;20241;-81
2021/05/15 13:33:43;;;;;;;1.27;1.17;;;;;;;22.27;34.35;97692.19;6811777;29;20266;-83
2021/05/15 13:37:22;;;;;;;2.17;1.50;;;;;;;21.89;34.06;97695.44;6820715;29;20201;-83
2021/05/15 13:40:53;;;;;;;2.63;1.57;;;;;;;21.80;33.06;97684.38;6838086;28;20244;-82
2021/05/15 13:44:18;;;;;;;1.53;1.30;;;;;;;21.93;34.74;97686.28;6832021;29;20624;-82
2021/05/15 13:47:49;;;;;;;2.60;1.30;;;;;;;22.11;35.02;97699.09;6814450;29;20232;-82
2021/05/15 13:51:25;;;;;;;2.87;1.20;;;;;;;22.39;34.71;97669.69;6812036;29;20260;-81
2021/05/15 13:54:50;;;;;;;1.73;1.00;;;;;;;22.60;33.93;97670.91;6812029;29;20585;-82
2021/05/15 13:58:12;;;;;;;1.50;1.40;;;;;;;22.52;33.49;97664.19;6812409;29;20277;-81
2021/05/15 14:01:33;;;;;;;3.47;1.33;;;;;;;22.34;33.86;97664.28;6810457;28;20238;-81
2021/05/15 14:04:54;;;;;;;2.53;1.50;;;;;;;21.79;35.01;97658.03;6894619;28;20215;-81
2021/05/15 14:08:16;;;;;;;2.53;1.77;;;;;;;21.58;34.08;97644.97;6894283;28;20592;-82
2021/05/15 14:11:37;;;;;;;1.73;1.20;;;;;;;22.05;33.52;97653.66;6903803;28;20230;-82
2021/05/15 14:14:59;;;;;;;1.43;1.30;;;;;;;22.22;32.94;97656.59;6897701;28;20202;-81
2021/05/15 14:18:20;;;;;;;2.13;1.30;;;;;;;22.20;33.30;97649.78;6898132;28;20203;-82
2021/05/15 14:21:41;;;;;;;1.93;1.50;;;;;;;21.96;32.85;97613.50;6897410;28;20320;-82
2021/05/15 14:25:04;;;;;;;3.93;1.50;;;;;;;22.19;32.78;97632.47;6902012;28;20551;-82
2021/05/15 14:28:25;;;;;;;2.80;1.50;;;;;;;22.56;33.44;97637.72;6895308;28;20208;-81
2021/05/15 14:31:46;;;;;;;2.33;1.70;;;;;;;22.39;34.23;97621.06;6896965;28;20234;-82
2021/05/15 14:35:09;;;;;;;2.27;1.50;;;;;;;22.58;32.95;97629.97;6900576;28;20242;-83
2021/05/15 14:38:30;;;;;;;1.60;1.50;;;;;;;22.69;33.02;97630.56;6923469;28;20541;-82
2021/05/15 14:41:54;;;;;;;3.13;1.60;;;;;;;22.80;32.80;97618.19;6904472;28;20233;-82
2021/05/15 14:45:15;;;;;;;2.93;1.40;;;;;;;22.77;32.80;97625.13;6903552;28;20200;-81
2021/05/15 14:48:36;;;;;;;2.60;1.50;;;;;;;22.85;32.99;97618.06;6931088;28;20210;-82
2021/05/15 14:51:58;;;;;;;2.53;1.40;;;;;;;22.40;32.38;97610.88;6928526;28;20229;-83
2021/05/15 14:55:19;;;;;;;1.40;1.30;;;;;;;22.09;33.12;97612.69;6924960;28;20656;-82
2021/05/15 14:58:41;;;;;;;3.40;1.37;;;;;;;21.99;32.45;97616.44;6901860;28;20213;-82
2021/05/15 15:02:02;;;;;;;2.57;1.60;;;;;;;21.75;32.28;97626.84;6900303;28;20259;-82
2021/05/15 15:05:24;;;;;;;1.90;1.40;;;;;;;22.01;31.99;97588.69;6901141;28;20553;-81
2021/05/15 15:08:45;;;;;;;1.87;1.00;;;;;;;21.95;31.79;97598.97;6899738;28;20212;-82
2021/05/15 15:12:09;;;;;;;2.17;1.20;;;;;;;21.95;33.05;97604.44;6899653;28;20239;-82
2021/05/15 15:15:31;;;;;;;14.23;7.17;;;;;;;21.90;31.91;97601.81;6899348;28;20265;-82
2021/05/15 15:18:52;;;;;;;3.63;1.17;;;;;;;21.61;31.87;97604.03;6899949;28;20229;-82
2021/05/15 15:22:13;;;;;;;3.53;2.00;;;;;;;21.41;32.21;97600.84;6899715;28;20235;-81
2021/05/15 15:25:35;;;;;;;1.33;1.20;;;;;;;21.17;32.60;97613.13;6900134;28;20565;-81
2021/05/15 15:28:56;;;;;;;1.57;1.13;;;;;;;21.67;32.15;97613.00;6898376;28;20211;-81
2021/05/15 15:32:18;;;;;;;1.30;1.20;;;;;;;20.75;33.14;97613.28;6911151;28;20724;-82
2021/05/15 15:35:40;;;;;;;4.00;1.60;;;;;;;20.46;33.31;97602.47;6893599;28;20655;-81
2021/05/15 15:39:05;;;;;;;1.60;1.50;;;;;;;20.95;33.09;97591.03;6900937;28;20204;-81
2021/05/15 15:42:28;;;;;;;1.40;1.30;;;;;;;20.92;32.96;97619.06;6922895;28;20557;-82
2021/05/15 15:45:49;;;;;;;2.50;1.30;;;;;;;20.59;33.62;97607.22;6910129;28;20219;-81
2021/05/15 15:49:11;;;;;;;1.40;1.30;;;;;;;20.59;34.12;97614.63;6910262;28;20571;-82
2021/05/15 15:52:49;;;;;;;3.03;1.73;;;;;;;19.83;35.39;97631.25;6900914;28;20581;-81
2021/05/15 16:00:55;;;;;;;1.47;1.03;;;;;;;19.33;43.75;97650.16;6822524;28;20237;-82
2021/05/15 17:19:48;;;;;;;1.43;1.33;;;;;;;16.95;47.46;97679.09;6947965;28;20777;-71
2021/05/15 17:23:10;;;;;;;1.60;1.50;;;;;;;17.32;47.93;97680.44;6915544;28;20266;-71
2021/05/15 17:26:32;;;;;;;1.30;1.30;;;;;;;17.75;46.77;97666.16;6913446;28;20220;-71
2021/05/15 17:29:54;;;;;;;1.53;1.40;;;;;;;17.60;46.55;97682.59;6928016;28;20564;-71
2021/05/15 17:33:15;;;;;;;1.60;1.50;;;;;;;17.63;45.94;97660.22;6892588;28;20211;-71
2021/05/15 17:36:37;;;;;;;1.30;1.20;;;;;;;17.66;46.10;97667.84;6917712;28;20232;-72
2021/05/15 17:39:58;;;;;;;1.33;1.33;;;;;;;17.70;45.67;97671.63;6911739;28;20579;-70
2021/05/15 17:43:20;;;;;;;2.00;1.10;;;;;;;17.27;46.67;97674.97;6889354;28;20212;-71
2021/05/15 17:46:41;;;;;;;1.63;1.10;;;;;;;17.29;47.21;97672.00;6932829;28;20573;-71
2021/05/15 17:50:04;;;;;;;2.17;1.13;;;;;;;17.71;45.22;97675.19;6945225;28;20207;-71
2021/05/15 17:53:26;;;;;;;1.67;1.20;;;;;;;17.73;45.37;97670.25;6922521;28;20215;-70
2021/05/15 17:56:47;;;;;;;2.90;1.20;;;;;;;17.78;45.40;97659.34;6898531;28;20571;-71
2021/05/15 18:00:10;;;;;;;1.03;1.00;;;;;;;17.77;45.62;97665.88;6890076;28;20232;-69
2021/05/15 18:03:31;;;;;;;1.30;1.20;;;;;;;18.08;44.25;97662.75;6888154;28;20622;-70
2021/05/15 18:06:53;;;;;;;1.37;1.27;;;;;;;17.16;45.60;97658.94;6888688;28;20737;-69
2021/05/15 18:10:15;;;;;;;1.00;1.00;;;;;;;17.99;43.80;97669.88;6889196;28;20654;-70
2021/05/15 18:13:36;;;;;;;1.20;1.10;;;;;;;17.41;44.99;97661.63;6889393;28;20580;-70
2021/05/15 18:16:57;;;;;;;1.27;1.20;;;;;;;16.80;46.01;97671.75;6889322;28;20204;-70
2021/05/15 18:20:19;;;;;;;1.17;1.17;;;;;;;17.41;45.49;97678.00;6897615;28;20225;-69
2021/05/15 18:23:41;;;;;;;1.20;1.10;;;;;;;17.03;45.90;97689.44;6913030;28;20231;-70
2021/05/15 18:27:03;;;;;;;1.20;1.20;;;;;;;17.32;44.86;97693.22;6939225;28;20220;-70
2021/05/15 18:30:25;;;;;;;1.60;1.50;;;;;;;17.31;44.78;97683.41;6915721;28;20220;-73
2021/05/15 18:33:46;;;;;;;1.17;1.10;;;;;;;16.27;48.01;97704.03;6917921;28;20591;-72
2021/05/15 18:37:10;;;;;;;1.20;1.00;;;;;;;16.70;46.49;97698.16;6918500;28;20560;-79
2021/05/15 18:40:37;;;;;;;1.27;1.23;;;;;;;16.78;45.89;97722.09;6853232;28;20271;-72
2021/05/15 18:48:48;;;;;;;1.13;1.13;;;;;;;16.33;47.33;97714.63;6833569;28;20215;-71
2021/05/15 18:52:11;;;;;;;1.00;1.00;;;;;;;16.20;47.62;97719.75;6882010;28;20200;-73
2021/05/15 18:55:32;;;;;;;1.63;1.13;;;;;;;15.62;48.23;97722.78;6912047;28;20289;-73
2021/05/15 18:58:56;;;;;;;0.80;0.80;;;;;;;16.35;47.18;97717.09;6935876;28;20655;-71
2021/05/15 19:02:18;;;;;;;1.00;1.00;;;;;;;16.47;46.85;97710.38;6925666;28;20279;-71
2021/05/15 19:05:39;;;;;;;0.90;0.90;;;;;;;15.98;47.58;97719.16;6902029;28;20212;-69
2021/05/15 19:09:04;;;;;;;0.93;0.93;;;;;;;16.03;47.10;97714.53;6891438;28;20219;-71
2021/05/15 19:12:25;;;;;;;1.23;1.07;;;;;;;16.08;47.34;97706.41;6926376;28;20649;-71
2021/05/15 19:16:06;;;;;;;1.00;1.00;;;;;;;16.12;47.34;97710.22;6901726;28;20204;-71
2021/05/15 19:19:29;;;;;;;0.97;0.97;;;;;;;15.96;47.48;97688.66;6911391;28;20227;-71
2021/05/15 19:22:50;;;;;;;1.00;1.00;;;;;;;16.12;47.28;97695.81;6902391;28;20228;-71
2021/05/15 19:26:12;;;;;;;0.97;0.97;;;;;;;15.96;47.06;97696.81;6928966;28;20205;-71
2021/05/15 19:29:33;;;;;;;0.90;0.90;;;;;;;16.23;46.42;97711.88;6925375;28;20294;-71
2021/05/15 19:32:55;;;;;;;1.00;1.00;;;;;;;16.38;46.48;97711.97;6920260;28;20232;-72
2021/05/15 19:36:17;;;;;;;0.80;0.80;;;;;;;15.75;47.08;97711.41;6935814;28;20530;-71
2021/05/15 19:39:39;;;;;;;1.07;1.07;;;;;;;16.16;46.32;97699.63;6935198;28;20255;-72
2021/05/15 19:43:00;;;;;;;1.10;1.10;;;;;;;16.31;46.21;97729.59;6901695;28;20204;-72
2021/05/15 19:46:21;;;;;;;1.80;1.00;;;;;;;15.94;46.83;97715.31;6912722;28;20208;-72
2021/05/15 19:49:44;;;;;;;1.33;1.20;;;;;;;16.11;46.48;97718.66;6902932;28;20207;-72
2021/05/15 19:53:07;;;;;;;0.83;0.83;;;;;;;16.36;46.09;97716.81;6917736;28;20230;-72
2021/05/15 19:56:30;;;;;;;1.30;1.20;;;;;;;16.23;46.22;97724.66;6935242;28;20212;-72
2021/05/15 19:59:56;;;;;;;1.10;0.97;;;;;;;15.97;46.64;97718.31;6904809;28;20572;-71
2021/05/15 20:03:17;;;;;;;1.07;1.07;;;;;;;16.15;46.05;97727.91;6906672;28;20211;-72
2021/05/15 20:06:39;;;;;;;1.90;1.30;;;;;;;16.37;45.82;97720.34;6905555;28;20773;-71
2021/05/15 20:10:01;;;;;;;1.70;1.60;;;;;;;16.66;45.21;97710.66;6919237;28;20249;-72
2021/05/15 20:13:22;;;;;;;1.13;1.13;;;;;;;16.19;45.44;97713.50;6912278;28;20601;-71
2021/05/15 20:16:44;;;;;;;1.17;1.17;;;;;;;16.24;45.64;97720.84;6900189;28;20207;-72
2021/05/15 20:20:07;;;;;;;1.30;1.20;;;;;;;16.51;44.98;97721.53;6897949;28;20267;-72
2021/05/15 20:23:28;;;;;;;1.47;1.20;;;;;;;15.75;46.78;97717.66;6906763;28;20215;-72
2021/05/15 20:26:50;;;;;;;1.60;1.50;;;;;;;15.72;47.37;97731.78;6930600;28;20204;-75
2021/05/15 20:30:13;;;;;;;1.40;1.30;;;;;;;15.83;46.66;97697.31;6919055;28;20219;-72
2021/05/15 20:33:34;;;;;;;1.50;1.30;;;;;;;15.98;46.74;97733.53;6919146;28;20563;-75
2021/05/15 20:36:55;;;;;;;1.40;1.30;;;;;;;16.02;46.48;97733.81;6919821;28;20207;-71
2021/05/15 20:40:17;;;;;;;1.30;1.20;;;;;;;15.88;45.97;97695.44;6899698;28;20287;-72
2021/05/15 20:43:39;;;;;;;2.50;1.30;;;;;;;16.09;46.06;97727.06;6911149;28;20215;-72
2021/05/15 20:47:00;;;;;;;2.20;1.40;;;;;;;16.02;46.26;97731.09;6903073;28;20214;-71
2021/05/15 20:50:21;;;;;;;1.40;1.30;;;;;;;16.12;45.78;97731.16;6919409;28;20201;-73
2021/05/15 20:53:43;;;;;;;1.47;1.37;;;;;;;16.11;46.11;97735.75;6917792;28;20231;-72
2021/05/15 20:57:05;;;;;;;1.10;1.10;;;;;;;15.88;46.52;97757.13;6918676;28;20686;-72
2021/05/15 21:00:27;;;;;;;2.03;1.30;;;;;;;15.39;47.44;97734.03;6916535;28;20381;-71
